createdAt,value
2018-11-27T00:00:20.063Z,1.50
2018-11-27T00:02:48.407Z,1.50
2018-11-27T00:05:16.476Z,1.50
2018-11-27T00:07:44.538Z,1.50
2018-11-27T00:10:13.134Z,1.50
2018-11-27T00:12:41.690Z,1.40
2018-11-27T00:15:10.923Z,1.40
2018-11-27T00:17:38.987Z,1.40
2018-11-27T00:20:08.824Z,1.40
2018-11-27T00:22:36.902Z,1.30
2018-11-27T00:25:07.119Z,1.30
2018-11-27T00:27:35.569Z,1.30
2018-11-27T00:30:03.937Z,1.20
2018-11-27T00:32:32.112Z,1.20
2018-11-27T00:35:00.285Z,1.10
2018-11-27T00:37:28.738Z,1.00
2018-11-27T00:39:56.813Z,1.00
2018-11-27T00:42:55.744Z,1.00
2018-11-27T00:45:24.117Z,0.90
2018-11-27T00:47:52.150Z,0.90
2018-11-27T00:50:22.301Z,0.90
2018-11-27T00:52:50.365Z,0.80
2018-11-27T00:55:19.194Z,0.80
2018-11-27T00:57:48.640Z,0.80
2018-11-27T01:00:21.383Z,0.80
2018-11-27T01:02:49.624Z,0.80
2018-11-27T01:05:18.930Z,0.80
2018-11-27T01:07:47.111Z,0.70
2018-11-27T01:10:16.183Z,0.70
2018-11-27T01:12:44.224Z,0.70
2018-11-27T01:15:13.063Z,0.60
2018-11-27T01:17:43.282Z,0.60
2018-11-27T01:20:13.190Z,0.60
2018-11-27T01:22:41.289Z,0.60
2018-11-27T01:25:09.884Z,0.60
2018-11-27T01:27:39.123Z,0.50
2018-11-27T01:30:11.367Z,0.50
2018-11-27T01:32:39.422Z,0.50
2018-11-27T01:35:09.190Z,0.50
2018-11-27T01:37:37.250Z,0.50
2018-11-27T01:40:10.993Z,0.50
2018-11-27T01:42:39.258Z,0.50
2018-11-27T01:45:10.193Z,0.50
2018-11-27T01:47:38.279Z,0.40
2018-11-27T01:50:12.514Z,0.40
2018-11-27T01:52:40.586Z,0.40
2018-11-27T01:55:09.738Z,0.50
2018-11-27T01:57:37.812Z,0.50
2018-11-27T02:00:08.544Z,0.40
2018-11-27T02:02:36.641Z,0.40
2018-11-27T02:05:05.643Z,0.40
2018-11-27T02:07:33.824Z,0.40
2018-11-27T02:10:01.895Z,0.30
2018-11-27T02:12:29.931Z,0.30
2018-11-27T02:14:58.041Z,0.30
2018-11-27T02:17:26.374Z,0.30
2018-11-27T02:19:54.253Z,0.30
2018-11-27T02:22:22.377Z,0.30
2018-11-27T02:24:50.474Z,0.30
2018-11-27T02:27:18.533Z,0.40
2018-11-27T02:29:47.381Z,0.30
2018-11-27T02:32:15.402Z,0.30
2018-11-27T02:34:43.515Z,0.20
2018-11-27T02:37:12.717Z,0.30
2018-11-27T02:39:40.756Z,0.30
2018-11-27T02:42:08.817Z,0.20
2018-11-27T02:44:37.116Z,0.30
2018-11-27T02:47:05.495Z,0.20
2018-11-27T02:49:33.530Z,0.30
2018-11-27T02:52:02.197Z,0.20
2018-11-27T02:54:30.298Z,0.20
2018-11-27T02:56:58.376Z,0.20
2018-11-27T02:59:26.476Z,0.20
2018-11-27T03:01:55.138Z,0.20
2018-11-27T03:04:23.261Z,0.20
2018-11-27T03:06:51.327Z,0.20
2018-11-27T03:09:19.336Z,0.20
2018-11-27T03:11:47.425Z,0.20
2018-11-27T03:14:15.548Z,0.20
2018-11-27T03:16:43.593Z,0.20
2018-11-27T03:19:11.639Z,0.20
2018-11-27T03:21:39.945Z,0.20
2018-11-27T03:24:07.966Z,0.10
2018-11-27T03:26:36.221Z,0.10
2018-11-27T03:29:04.847Z,0.10
2018-11-27T03:31:33.313Z,0.10
2018-11-27T03:34:02.128Z,0.10
2018-11-27T03:36:30.166Z,0.10
2018-11-27T03:39:01.868Z,0.10
2018-11-27T03:41:29.986Z,0.10
2018-11-27T03:43:58.022Z,0.10
2018-11-27T03:46:26.260Z,0.10
2018-11-27T03:48:56.765Z,0.10
2018-11-27T03:51:25.057Z,0.10
2018-11-27T03:53:54.104Z,0.10
2018-11-27T03:56:22.274Z,0.10
2018-11-27T03:58:50.515Z,0.10
2018-11-27T04:01:18.563Z,0.10
2018-11-27T04:03:46.636Z,0.10
2018-11-27T04:06:14.750Z,0.10
2018-11-27T04:08:42.869Z,0.10
2018-11-27T04:11:10.969Z,0.10
2018-11-27T04:13:39.086Z,0.10
2018-11-27T04:16:07.212Z,0.10
2018-11-27T04:18:35.243Z,0.10
2018-11-27T04:21:03.323Z,0.10
2018-11-27T04:23:31.390Z,0.10
2018-11-27T04:25:59.714Z,0.10
2018-11-27T04:28:27.818Z,0.00
2018-11-27T04:30:55.907Z,0.10
2018-11-27T04:33:24.296Z,0.10
2018-11-27T04:35:52.450Z,0.10
2018-11-27T04:38:20.699Z,0.10
2018-11-27T04:40:48.770Z,0.00
2018-11-27T04:43:17.047Z,0.00
2018-11-27T04:45:45.110Z,0.00
2018-11-27T04:48:13.178Z,0.00
2018-11-27T04:50:41.437Z,0.00
2018-11-27T04:53:09.595Z,0.00
2018-11-27T04:55:37.667Z,0.00
2018-11-27T04:58:05.893Z,0.00
2018-11-27T05:00:33.947Z,0.00
2018-11-27T05:03:01.991Z,0.00
2018-11-27T05:05:30.130Z,0.00
2018-11-27T05:07:58.206Z,0.00
2018-11-27T05:10:26.274Z,0.00
2018-11-27T05:12:54.644Z,0.00
2018-11-27T05:15:24.196Z,0.00
2018-11-27T05:17:54.344Z,0.00
2018-11-27T05:20:22.509Z,0.00
2018-11-27T05:22:50.565Z,0.00
2018-11-27T05:25:19.451Z,0.00
2018-11-27T05:27:48.502Z,-0.10
2018-11-27T05:30:17.609Z,-0.10
2018-11-27T05:32:45.667Z,-0.10
2018-11-27T05:35:22.663Z,-0.10
2018-11-27T05:37:50.951Z,-0.10
2018-11-27T05:40:20.289Z,-0.10
2018-11-27T05:42:49.743Z,-0.10
2018-11-27T05:45:19.096Z,-0.10
2018-11-27T05:47:47.369Z,-0.10
2018-11-27T05:50:16.426Z,-0.10
2018-11-27T05:52:44.683Z,0.00
2018-11-27T05:55:13.284Z,0.00
2018-11-27T05:57:41.854Z,0.00
2018-11-27T06:00:20.602Z,0.00
2018-11-27T06:02:50.413Z,-0.10
2018-11-27T06:05:19.557Z,-0.10
2018-11-27T06:07:47.583Z,-0.10
2018-11-27T06:10:17.723Z,-0.10
2018-11-27T06:12:45.779Z,-0.10
2018-11-27T06:15:15.752Z,-0.10
2018-11-27T06:17:43.997Z,-0.10
2018-11-27T06:20:14.188Z,-0.10
2018-11-27T06:22:42.308Z,-0.10
2018-11-27T06:25:13.936Z,0.00
2018-11-27T06:27:41.971Z,0.00
2018-11-27T06:30:13.438Z,0.00
2018-11-27T06:32:41.543Z,0.00
2018-11-27T06:35:11.118Z,0.10
2018-11-27T06:37:39.941Z,0.10
2018-11-27T06:40:11.638Z,0.20
2018-11-27T06:42:39.778Z,0.20
2018-11-27T06:45:10.305Z,0.20
2018-11-27T06:47:38.432Z,0.20
2018-11-27T06:50:08.205Z,0.20
2018-11-27T06:52:36.301Z,0.20
2018-11-27T06:55:05.191Z,0.20
2018-11-27T06:57:33.594Z,0.30
2018-11-27T07:00:01.838Z,0.30
2018-11-27T07:02:29.913Z,0.30
2018-11-27T07:04:58.002Z,0.30
2018-11-27T07:07:26.057Z,0.30
2018-11-27T07:09:54.131Z,0.30
2018-11-27T07:12:22.544Z,0.30
2018-11-27T07:14:50.580Z,0.30
2018-11-27T07:17:18.655Z,0.30
2018-11-27T07:19:46.754Z,0.40
2018-11-27T07:22:14.797Z,0.40
2018-11-27T07:24:42.873Z,0.40
2018-11-27T07:27:10.947Z,0.50
2018-11-27T07:29:38.991Z,0.50
2018-11-27T07:32:09.421Z,0.50
2018-11-27T07:34:35.305Z,0.50
2018-11-27T07:37:03.379Z,0.50
2018-11-27T07:39:31.596Z,0.40
2018-11-27T07:41:59.736Z,0.50
2018-11-27T07:44:27.823Z,0.60
2018-11-27T07:46:55.860Z,0.50
2018-11-27T07:49:24.190Z,0.50
2018-11-27T07:51:52.365Z,0.60
2018-11-27T07:54:20.594Z,0.70
2018-11-27T07:56:49.073Z,0.70
2018-11-27T07:59:17.781Z,0.70
2018-11-27T08:01:46.015Z,0.70
2018-11-27T08:04:14.266Z,0.80
2018-11-27T08:06:42.362Z,0.90
2018-11-27T08:09:10.184Z,1.10
2018-11-27T08:11:38.363Z,1.30
2018-11-27T08:14:06.431Z,1.30
2018-11-27T08:16:34.449Z,1.50
2018-11-27T08:19:02.495Z,1.60
2018-11-27T08:21:30.549Z,1.80
2018-11-27T08:23:58.597Z,1.90
2018-11-27T08:26:27.021Z,2.10
2018-11-27T08:28:55.066Z,2.30
2018-11-27T08:31:23.130Z,2.50
2018-11-27T08:33:51.963Z,2.70
2018-11-27T08:36:19.997Z,2.80
2018-11-27T08:38:48.016Z,2.90
2018-11-27T08:41:16.392Z,3.00
2018-11-27T08:43:44.435Z,3.10
2018-11-27T08:46:12.489Z,3.30
2018-11-27T08:48:40.606Z,3.40
2018-11-27T08:51:08.682Z,3.40
2018-11-27T08:53:36.718Z,3.40
2018-11-27T08:56:05.045Z,3.30
2018-11-27T08:58:33.093Z,3.20
2018-11-27T09:01:01.178Z,3.30
2018-11-27T09:03:29.619Z,3.40
2018-11-27T09:05:57.681Z,3.40
2018-11-27T09:08:25.742Z,3.40
2018-11-27T09:10:53.923Z,3.30
2018-11-27T09:13:21.953Z,3.30
2018-11-27T09:15:49.974Z,3.30
2018-11-27T09:18:20.542Z,3.30
2018-11-27T09:20:48.620Z,3.30
2018-11-27T09:23:16.643Z,3.30
2018-11-27T09:25:44.810Z,3.20
2018-11-27T09:28:12.877Z,3.20
2018-11-27T09:30:40.975Z,3.40
2018-11-27T09:33:09.327Z,3.60
2018-11-27T09:35:37.378Z,3.60
2018-11-27T09:38:05.607Z,3.70
2018-11-27T09:40:33.765Z,3.80
2018-11-27T09:43:02.042Z,3.70
2018-11-27T09:45:30.086Z,3.70
2018-11-27T09:47:58.767Z,3.60
2018-11-27T09:50:26.835Z,3.60
2018-11-27T09:52:54.916Z,3.70
2018-11-27T09:55:25.455Z,3.70
2018-11-27T09:57:58.810Z,3.70
2018-11-27T10:00:23.503Z,3.80
2018-11-27T10:02:52.628Z,3.70
2018-11-27T10:05:20.662Z,3.60
2018-11-27T10:07:48.880Z,3.60
2018-11-27T10:10:19.204Z,3.60
2018-11-27T10:12:47.284Z,3.30
2018-11-27T10:15:20.178Z,3.30
2018-11-27T10:17:49.674Z,3.30
2018-11-27T10:20:18.766Z,3.40
2018-11-27T10:22:46.933Z,3.40
2018-11-27T10:25:15.008Z,3.40
2018-11-27T10:27:43.372Z,3.50
2018-11-27T10:30:21.152Z,3.40
2018-11-27T10:32:50.042Z,3.20
2018-11-27T10:35:23.159Z,3.10
2018-11-27T10:37:51.261Z,3.10
2018-11-27T10:40:19.327Z,3.10
2018-11-27T10:42:47.508Z,3.30
2018-11-27T10:45:17.701Z,3.50
2018-11-27T10:47:46.896Z,3.60
2018-11-27T10:50:15.799Z,3.70
2018-11-27T10:52:44.965Z,3.70
2018-11-27T10:55:13.906Z,3.70
2018-11-27T10:57:42.030Z,3.80
2018-11-27T11:00:18.902Z,3.90
2018-11-27T11:02:52.570Z,3.80
2018-11-27T11:05:24.117Z,3.90
2018-11-27T11:07:52.835Z,4.00
2018-11-27T11:10:20.932Z,4.10
2018-11-27T11:12:49.597Z,4.20
2018-11-27T11:15:17.764Z,4.10
2018-11-27T11:17:45.830Z,3.90
2018-11-27T11:20:13.904Z,3.80
2018-11-27T11:22:41.930Z,3.90
2018-11-27T11:25:13.458Z,3.90
2018-11-27T11:27:41.650Z,3.80
2018-11-27T11:30:16.361Z,3.70
2018-11-27T11:32:44.413Z,3.70
2018-11-27T11:35:12.559Z,3.70
2018-11-27T11:37:40.995Z,3.80
2018-11-27T11:40:11.121Z,3.90
2018-11-27T11:42:39.194Z,3.90
2018-11-27T11:45:08.307Z,3.90
2018-11-27T11:47:36.493Z,3.90
2018-11-27T11:50:06.843Z,4.00
2018-11-27T11:52:35.186Z,4.10
2018-11-27T11:55:02.905Z,4.10
2018-11-27T11:57:31.016Z,4.10
2018-11-27T11:59:59.037Z,4.00
2018-11-27T12:02:27.070Z,4.10
2018-11-27T12:04:55.424Z,4.30
2018-11-27T12:07:23.456Z,4.50
2018-11-27T12:09:51.506Z,4.60
2018-11-27T12:12:19.692Z,4.60
2018-11-27T12:14:48.174Z,4.70
2018-11-27T12:17:16.246Z,4.80
2018-11-27T12:19:44.413Z,4.60
2018-11-27T12:22:12.517Z,4.50
2018-11-27T12:24:40.737Z,4.50
2018-11-27T12:27:08.998Z,4.30
2018-11-27T12:29:37.946Z,4.10
2018-11-27T12:32:06.114Z,4.00
2018-11-27T12:34:34.599Z,4.20
2018-11-27T12:37:03.787Z,4.30
2018-11-27T12:39:30.858Z,4.40
2018-11-27T12:41:58.942Z,4.20
2018-11-27T12:44:27.070Z,4.10
2018-11-27T12:46:55.072Z,4.00
2018-11-27T12:49:23.545Z,4.20
2018-11-27T12:51:51.666Z,4.30
2018-11-27T12:54:19.731Z,4.30
2018-11-27T12:56:47.860Z,4.20
2018-11-27T12:59:16.530Z,4.30
2018-11-27T13:01:44.603Z,4.30
2018-11-27T13:04:12.798Z,4.30
2018-11-27T13:06:41.765Z,4.40
2018-11-27T13:09:10.350Z,4.40
2018-11-27T13:11:38.614Z,4.50
2018-11-27T13:14:07.140Z,4.60
2018-11-27T13:16:35.418Z,4.60
2018-11-27T13:19:03.506Z,4.60
2018-11-27T13:21:31.558Z,4.50
2018-11-27T13:24:00.042Z,4.40
2018-11-27T13:26:28.114Z,4.40
2018-11-27T13:28:56.218Z,4.30
2018-11-27T13:31:26.594Z,4.30
2018-11-27T13:33:59.154Z,4.30
2018-11-27T13:36:27.320Z,4.30
2018-11-27T13:38:55.399Z,4.20
2018-11-27T13:41:23.467Z,4.20
2018-11-27T13:43:51.638Z,4.10
2018-11-27T13:46:19.711Z,4.00
2018-11-27T13:48:47.770Z,4.00
2018-11-27T13:51:16.288Z,4.00
2018-11-27T13:53:44.344Z,3.90
2018-11-27T13:56:12.443Z,3.90
2018-11-27T13:58:41.131Z,3.90
2018-11-27T14:01:09.291Z,3.80
2018-11-27T14:03:37.383Z,3.90
2018-11-27T14:06:05.599Z,4.00
2018-11-27T14:08:34.652Z,4.10
2018-11-27T14:11:02.686Z,4.10
2018-11-27T14:13:30.865Z,4.20
2018-11-27T14:15:58.945Z,4.20
2018-11-27T14:18:27.046Z,4.30
2018-11-27T14:20:55.332Z,4.20
2018-11-27T14:23:23.357Z,4.00
2018-11-27T14:25:57.946Z,3.90
2018-11-27T14:28:26.110Z,3.70
2018-11-27T14:30:54.225Z,3.60
2018-11-27T14:33:22.633Z,3.60
2018-11-27T14:35:50.735Z,3.50
2018-11-27T14:38:18.842Z,3.50
2018-11-27T14:40:47.044Z,3.40
2018-11-27T14:43:15.993Z,3.40
2018-11-27T14:45:44.056Z,3.40
2018-11-27T14:48:12.305Z,3.40
2018-11-27T14:50:42.510Z,3.40
2018-11-27T14:53:11.004Z,3.40
2018-11-27T14:55:39.186Z,3.30
2018-11-27T14:58:07.370Z,3.30
2018-11-27T15:00:35.812Z,3.20
2018-11-27T15:03:03.854Z,3.20
2018-11-27T15:05:34.925Z,3.30
2018-11-27T15:08:03.722Z,3.30
2018-11-27T15:10:31.813Z,3.20
2018-11-27T15:12:59.942Z,3.30
2018-11-27T15:15:28.043Z,3.30
2018-11-27T15:17:56.078Z,3.40
2018-11-27T15:20:24.305Z,3.30
2018-11-27T15:22:52.363Z,3.40
2018-11-27T15:25:20.697Z,3.50
2018-11-27T15:27:49.570Z,3.60
2018-11-27T15:30:22.751Z,3.70
2018-11-27T15:32:51.800Z,3.70
2018-11-27T15:35:19.890Z,3.70
2018-11-27T15:37:48.129Z,3.70
2018-11-27T15:40:21.557Z,3.70
2018-11-27T15:42:49.649Z,3.70
2018-11-27T15:45:19.971Z,3.70
2018-11-27T15:47:48.462Z,3.60
2018-11-27T15:50:16.522Z,3.60
2018-11-27T15:52:44.676Z,3.50
2018-11-27T15:55:18.786Z,3.60
2018-11-27T15:57:47.786Z,3.60
2018-11-27T16:00:17.877Z,3.60
2018-11-27T16:02:46.035Z,3.70
2018-11-27T16:05:14.689Z,3.70
2018-11-27T16:07:42.910Z,3.70
2018-11-27T16:10:12.146Z,3.70
2018-11-27T16:12:40.193Z,3.70
2018-11-27T16:15:12.811Z,3.80
2018-11-27T16:17:40.906Z,3.80
2018-11-27T16:20:11.335Z,3.90
2018-11-27T16:22:39.776Z,4.00
2018-11-27T16:25:10.727Z,3.90
2018-11-27T16:27:38.942Z,4.00
2018-11-27T16:30:21.824Z,3.90
2018-11-27T16:32:49.986Z,3.70
2018-11-27T16:35:18.057Z,3.60
2018-11-27T16:37:47.515Z,3.60
2018-11-27T16:40:17.488Z,3.60
2018-11-27T16:42:45.566Z,3.60
2018-11-27T16:45:15.784Z,3.70
2018-11-27T16:47:44.294Z,3.70
2018-11-27T16:50:13.414Z,3.70
2018-11-27T16:52:41.524Z,3.60
2018-11-27T16:55:10.975Z,3.50
2018-11-27T16:57:39.089Z,3.40
2018-11-27T17:00:33.288Z,3.40
2018-11-27T17:03:03.272Z,3.40
2018-11-27T17:05:33.037Z,3.40
2018-11-27T17:08:01.102Z,3.50
2018-11-27T17:10:29.109Z,3.60
2018-11-27T17:12:57.989Z,3.50
2018-11-27T17:15:27.088Z,3.60
2018-11-27T17:17:55.958Z,3.60
2018-11-27T17:20:32.914Z,3.60
2018-11-27T17:23:02.007Z,3.70
2018-11-27T17:25:30.033Z,3.60
2018-11-27T17:28:07.977Z,3.60
2018-11-27T17:30:37.651Z,3.70
2018-11-27T17:33:09.849Z,3.70
2018-11-27T17:35:37.930Z,3.70
2018-11-27T17:38:06.644Z,3.70
2018-11-27T17:40:38.611Z,3.70
2018-11-27T17:43:06.883Z,3.70
2018-11-27T17:45:34.916Z,3.70
2018-11-27T17:48:03.335Z,3.70
2018-11-27T17:50:31.401Z,3.70
2018-11-27T17:52:59.435Z,3.70
2018-11-27T17:55:27.998Z,3.70
2018-11-27T17:57:56.020Z,3.60
2018-11-27T18:00:25.772Z,3.50
2018-11-27T18:02:55.349Z,3.50
2018-11-27T18:05:23.405Z,3.40
2018-11-27T18:07:51.511Z,3.40
2018-11-27T18:10:19.603Z,3.40
2018-11-27T18:12:48.058Z,3.40
2018-11-27T18:15:17.565Z,3.40
2018-11-27T18:17:45.904Z,3.40
2018-11-27T18:20:14.487Z,3.40
2018-11-27T18:22:42.613Z,3.30
2018-11-27T18:25:14.924Z,3.30
2018-11-27T18:27:44.276Z,3.20
2018-11-27T18:30:15.487Z,3.20
2018-11-27T18:32:43.643Z,3.20
2018-11-27T18:35:16.740Z,3.10
2018-11-27T18:37:45.257Z,3.10
2018-11-27T18:40:14.183Z,3.00
2018-11-27T18:42:42.588Z,3.10
2018-11-27T18:45:17.167Z,3.10
2018-11-27T18:47:45.413Z,3.00
2018-11-27T18:50:13.771Z,3.00
2018-11-27T18:52:42.779Z,3.00
2018-11-27T18:55:12.969Z,3.00
2018-11-27T18:57:41.840Z,3.00
2018-11-27T19:00:17.866Z,3.00
2018-11-27T19:02:46.375Z,3.00
2018-11-27T19:05:14.598Z,3.00
2018-11-27T19:07:43.300Z,3.00
2018-11-27T19:10:17.592Z,3.00
2018-11-27T19:12:46.070Z,3.00
2018-11-27T19:15:16.860Z,3.00
2018-11-27T19:17:46.167Z,3.00
2018-11-27T19:20:14.190Z,2.90
2018-11-27T19:22:42.469Z,2.90
2018-11-27T19:25:12.726Z,2.90
2018-11-27T19:27:41.524Z,2.90
2018-11-27T19:30:16.603Z,3.00
2018-11-27T19:32:45.197Z,3.00
2018-11-27T19:35:16.242Z,3.10
2018-11-27T19:37:44.961Z,3.00
2018-11-27T19:40:14.097Z,3.00
2018-11-27T19:42:42.126Z,3.10
2018-11-27T19:45:16.609Z,3.10
2018-11-27T19:47:44.679Z,3.10
2018-11-27T19:50:13.277Z,3.10
2018-11-27T19:52:42.582Z,3.00
2018-11-27T19:55:11.996Z,3.00
2018-11-27T19:57:40.422Z,3.00
2018-11-27T20:00:16.978Z,3.10
2018-11-27T20:02:45.151Z,3.00
2018-11-27T20:05:14.445Z,3.00
2018-11-27T20:07:42.589Z,3.00
2018-11-27T20:10:13.650Z,3.00
2018-11-27T20:12:41.796Z,3.00
2018-11-27T20:15:12.575Z,3.00
2018-11-27T20:17:40.901Z,3.00
2018-11-27T20:20:10.253Z,3.00
2018-11-27T20:22:38.262Z,3.00
2018-11-27T20:25:08.388Z,3.10
2018-11-27T20:27:37.146Z,3.10
2018-11-27T20:30:09.546Z,3.10
2018-11-27T20:32:37.808Z,3.00
2018-11-27T20:35:07.788Z,3.00
2018-11-27T20:37:35.850Z,3.00
2018-11-27T20:40:07.165Z,3.00
2018-11-27T20:42:35.647Z,2.90
2018-11-27T20:45:03.796Z,2.90
2018-11-27T20:47:32.027Z,2.90
2018-11-27T20:50:00.157Z,2.90
2018-11-27T20:52:28.302Z,3.00
2018-11-27T20:54:56.361Z,3.00
2018-11-27T20:57:24.353Z,3.00
2018-11-27T20:59:52.749Z,3.00
2018-11-27T21:02:20.872Z,3.10
2018-11-27T21:04:48.889Z,3.20
2018-11-27T21:07:16.955Z,3.30
2018-11-27T21:09:45.035Z,3.20
2018-11-27T21:12:13.077Z,3.10
2018-11-27T21:14:42.232Z,3.20
2018-11-27T21:17:09.372Z,3.20
2018-11-27T21:19:37.439Z,3.20
2018-11-27T21:22:05.473Z,3.30
2018-11-27T21:24:33.788Z,3.40
2018-11-27T21:27:01.842Z,3.30
2018-11-27T21:29:29.914Z,3.40
2018-11-27T21:31:57.983Z,3.40
2018-11-27T21:34:26.018Z,3.40
2018-11-27T21:36:54.045Z,3.30
2018-11-27T21:39:22.242Z,3.20
2018-11-27T21:41:50.273Z,3.30
2018-11-27T21:44:18.326Z,3.30
2018-11-27T21:46:46.654Z,3.30
2018-11-27T21:49:14.882Z,3.30
2018-11-27T21:51:42.933Z,3.40
2018-11-27T21:54:11.018Z,3.60
2018-11-27T21:56:39.100Z,3.60
2018-11-27T21:59:07.494Z,3.70
2018-11-27T22:01:36.092Z,3.70
2018-11-27T22:04:04.250Z,3.70
2018-11-27T22:06:32.327Z,3.70
2018-11-27T22:09:00.404Z,3.70
2018-11-27T22:11:28.450Z,3.70
2018-11-27T22:13:56.519Z,3.60
2018-11-27T22:16:25.116Z,3.60
2018-11-27T22:18:53.150Z,3.70
2018-11-27T22:21:21.186Z,3.70
2018-11-27T22:23:49.722Z,3.80
2018-11-27T22:26:17.757Z,3.70
2018-11-27T22:28:45.796Z,3.80
2018-11-27T22:31:13.885Z,3.80
2018-11-27T22:33:41.912Z,3.80
2018-11-27T22:36:09.982Z,3.80
2018-11-27T22:38:38.065Z,3.80
2018-11-27T22:41:06.121Z,3.80
2018-11-27T22:43:34.308Z,3.80
2018-11-27T22:46:02.444Z,3.90
2018-11-27T22:48:30.493Z,4.00
2018-11-27T22:50:58.619Z,4.00
2018-11-27T22:53:26.896Z,4.00
2018-11-27T22:55:54.943Z,4.00
2018-11-27T22:58:22.994Z,4.00
2018-11-27T23:00:52.141Z,4.00
2018-11-27T23:03:20.513Z,4.00
2018-11-27T23:05:48.613Z,4.00
2018-11-27T23:08:16.852Z,3.90
2018-11-27T23:10:46.024Z,3.90
2018-11-27T23:13:14.085Z,3.90
2018-11-27T23:15:42.194Z,3.90
2018-11-27T23:18:10.255Z,3.90
2018-11-27T23:20:38.804Z,3.90
2018-11-27T23:23:06.814Z,3.90
2018-11-27T23:25:34.861Z,3.90
2018-11-27T23:28:03.376Z,3.90
2018-11-27T23:30:31.417Z,3.90
2018-11-27T23:32:59.497Z,4.00
2018-11-27T23:35:27.993Z,4.00
2018-11-27T23:37:56.269Z,4.00
2018-11-27T23:40:24.322Z,4.00
2018-11-27T23:42:52.380Z,3.90
2018-11-27T23:45:22.060Z,3.90
2018-11-27T23:47:50.074Z,3.80
2018-11-27T23:50:19.083Z,3.80
2018-11-27T23:52:47.260Z,3.70
2018-11-27T23:55:16.446Z,3.70
2018-11-27T23:57:45.485Z,3.70
